Time;durP1;ratioP1;P1;durP2;ratioP2;P2;SDS_P1;SDS_P2;PMS_P1;PMS_P2;Temp;Humidity;BMP_temperature;BMP_pressure;BME280_temperature;BME280_humidity;BME280_pressure;Samples;Min_cycle;Max_cycle;Signal;HPM_P1;HPM_P2
2023/04/04 00:00:19;;;;;;;2.33;1.10;;;;;;;;;;5032802;28;20476;-75
2023/04/04 00:02:45;;;;;;;1.07;0.60;;;;;;;;;;5032448;28;20456;-76
2023/04/04 00:05:11;;;;;;;3.50;1.20;;;;;;;;;;5032745;28;20445;-75
2023/04/04 00:07:37;;;;;;;1.60;1.00;;;;;;;;;;5032745;28;20846;-75
2023/04/04 00:10:03;;;;;;;2.03;0.70;;;;;;;;;;5032679;28;20464;-76
2023/04/04 00:12:29;;;;;;;2.40;0.73;;;;;;;;;;5015046;28;20505;-76
2023/04/04 00:14:56;;;;;;;0.83;0.60;;;;;;;;;;5032600;28;20450;-76
2023/04/04 00:17:22;;;;;;;2.47;0.93;;;;;;;;;;5032324;28;20416;-77
2023/04/04 00:19:48;;;;;;;3.10;0.83;;;;;;;;;;5032606;28;20489;-76
2023/04/04 00:22:14;;;;;;;2.50;0.70;;;;;;;;;;5032672;28;20420;-77
2023/04/04 00:24:40;;;;;;;0.93;0.40;;;;;;;;;;5032611;28;20405;-77
2023/04/04 00:27:06;;;;;;;3.07;0.77;;;;;;;;;;5032629;28;20442;-77
2023/04/04 00:29:33;;;;;;;2.20;0.50;;;;;;;;;;5032546;28;20796;-76
2023/04/04 00:31:59;;;;;;;3.10;0.70;;;;;;;;;;5032216;28;20401;-76
2023/04/04 00:34:25;;;;;;;1.43;0.63;;;;;;;;;;5035113;28;20826;-77
2023/04/04 00:36:52;;;;;;;1.37;1.00;;;;;;;;;;5036130;28;20547;-76
2023/04/04 00:39:18;;;;;;;2.83;0.93;;;;;;;;;;5036224;28;20742;-76
2023/04/04 00:41:44;;;;;;;11.67;1.00;;;;;;;;;;5036202;28;20551;-76
2023/04/04 00:44:10;;;;;;;2.53;1.07;;;;;;;;;;5036083;28;20409;-76
2023/04/04 00:46:36;;;;;;;2.37;1.10;;;;;;;;;;5035725;28;20428;-77
2023/04/04 00:49:02;;;;;;;1.20;0.70;;;;;;;;;;5036048;28;20404;-77
2023/04/04 00:51:28;;;;;;;0.80;0.50;;;;;;;;;;5035998;28;20889;-76
2023/04/04 00:53:54;;;;;;;2.90;0.97;;;;;;;;;;5035967;28;20412;-77
2023/04/04 00:56:21;;;;;;;1.17;0.40;;;;;;;;;;5035913;28;20476;-77
2023/04/04 00:58:47;;;;;;;1.73;0.70;;;;;;;;;;5035738;28;20461;-77
2023/04/04 01:01:13;;;;;;;1.23;0.60;;;;;;;;;;5035772;28;20424;-77
2023/04/04 01:03:39;;;;;;;1.80;0.73;;;;;;;;;;5035433;28;20591;-76
2023/04/04 01:06:06;;;;;;;1.57;0.60;;;;;;;;;;5035746;28;20442;-77
2023/04/04 01:08:33;;;;;;;1.30;0.80;;;;;;;;;;5035714;28;20511;-77
2023/04/04 01:10:59;;;;;;;2.83;1.30;;;;;;;;;;5035666;28;20420;-77
2023/04/04 01:13:26;;;;;;;2.80;0.80;;;;;;;;;;5035574;28;20413;-76
2023/04/04 01:15:52;;;;;;;2.37;0.87;;;;;;;;;;5035458;28;20481;-77
2023/04/04 01:18:19;;;;;;;1.67;0.80;;;;;;;;;;5035123;28;20905;-77
2023/04/04 01:21:04;;;;;;;1.77;1.17;;;;;;;;;;5002337;28;20448;-77
2023/04/04 01:24:00;;;;;;;1.17;0.83;;;;;;;;;;5055314;28;20404;-77
2023/04/04 01:26:27;;;;;;;1.73;0.63;;;;;;;;;;5034373;28;20444;-76
2023/04/04 01:28:53;;;;;;;0.90;0.50;;;;;;;;;;5055196;28;20500;-77
2023/04/04 01:31:22;;;;;;;2.40;0.80;;;;;;;;;;5054823;28;20420;-77
2023/04/04 01:33:55;;;;;;;2.40;0.70;;;;;;;;;;5037150;28;20410;-77
2023/04/04 01:36:31;;;;;;;1.70;0.60;;;;;;;;;;5054948;28;20495;-77
2023/04/04 01:39:13;;;;;;;1.03;0.77;;;;;;;;;;5055075;28;20404;-76
2023/04/04 01:41:39;;;;;;;1.80;0.80;;;;;;;;;;5055038;28;20499;-76
2023/04/04 01:44:05;;;;;;;2.00;0.97;;;;;;;;;;5054482;28;20404;-76
2023/04/04 01:46:31;;;;;;;1.30;0.60;;;;;;;;;;5054590;28;20419;-76
2023/04/04 01:48:57;;;;;;;1.30;0.80;;;;;;;;;;5054882;28;20413;-76
2023/04/04 01:51:23;;;;;;;2.97;1.00;;;;;;;;;;5054784;28;20463;-77
2023/04/04 01:53:49;;;;;;;2.13;1.90;;;;;;;;;;5054779;28;20412;-76
2023/04/04 01:56:15;;;;;;;2.43;1.10;;;;;;;;;;5054545;28;20468;-76
2023/04/04 01:58:42;;;;;;;1.70;1.03;;;;;;;;;;5054498;28;20460;-76
2023/04/04 02:01:08;;;;;;;4.77;2.80;;;;;;;;;;5054213;28;20417;-77
2023/04/04 02:03:34;;;;;;;1.20;1.10;;;;;;;;;;5054550;28;20421;-77
2023/04/04 02:06:00;;;;;;;2.43;1.50;;;;;;;;;;5054560;28;20435;-77
2023/04/04 02:08:27;;;;;;;1.50;1.40;;;;;;;;;;5054409;28;20403;-76
2023/04/04 02:10:53;;;;;;;2.27;0.73;;;;;;;;;;5054417;28;20558;-77
2023/04/04 02:13:19;;;;;;;1.53;1.03;;;;;;;;;;5054449;28;20441;-77
2023/04/04 02:15:45;;;;;;;1.50;0.97;;;;;;;;;;5054219;28;20867;-77
2023/04/04 02:18:11;;;;;;;1.47;1.00;;;;;;;;;;5053912;28;20449;-77
2023/04/04 02:20:37;;;;;;;1.17;0.93;;;;;;;;;;5054258;28;20404;-77
2023/04/04 02:23:03;;;;;;;3.03;1.13;;;;;;;;;;5054155;28;20418;-77
2023/04/04 02:25:29;;;;;;;1.47;1.20;;;;;;;;;;5036337;28;20450;-77
2023/04/04 02:27:55;;;;;;;2.13;1.20;;;;;;;;;;5036282;28;20487;-77
2023/04/04 02:30:21;;;;;;;3.20;1.23;;;;;;;;;;5054106;28;20412;-77
2023/04/04 02:32:47;;;;;;;1.70;1.00;;;;;;;;;;5053616;28;20493;-76
2023/04/04 02:35:13;;;;;;;1.40;0.97;;;;;;;;;;5053945;28;20967;-77
2023/04/04 02:37:39;;;;;;;1.63;1.00;;;;;;;;;;5053885;28;20516;-77
2023/04/04 02:40:05;;;;;;;0.67;0.33;;;;;;;;;;5053885;28;20472;-77
2023/04/04 02:42:31;;;;;;;2.63;0.77;;;;;;;;;;5053741;28;21002;-77
2023/04/04 02:44:57;;;;;;;1.60;1.33;;;;;;;;;;5053834;28;20512;-78
2023/04/04 02:47:23;;;;;;;1.70;1.10;;;;;;;;;;5053417;28;20415;-77
2023/04/04 02:49:49;;;;;;;2.27;1.00;;;;;;;;;;5053729;28;20404;-78
2023/04/04 02:52:15;;;;;;;1.87;1.40;;;;;;;;;;5053609;28;20415;-77
2023/04/04 02:54:42;;;;;;;1.47;0.80;;;;;;;;;;5053636;28;20441;-76
2023/04/04 02:57:08;;;;;;;2.50;0.80;;;;;;;;;;5052618;28;20480;-77
2023/04/04 02:59:34;;;;;;;2.60;1.30;;;;;;;;;;5053498;28;20892;-77
2023/04/04 03:02:00;;;;;;;5.53;1.00;;;;;;;;;;5053228;28;20537;-76
2023/04/04 03:04:26;;;;;;;3.40;1.80;;;;;;;;;;5053384;28;20441;-77
2023/04/04 03:06:52;;;;;;;1.73;0.87;;;;;;;;;;5053386;28;20415;-77
2023/04/04 03:09:18;;;;;;;2.73;1.03;;;;;;;;;;5053315;28;20457;-76
2023/04/04 03:11:45;;;;;;;2.27;0.90;;;;;;;;;;5035429;28;20417;-76
2023/04/04 03:14:11;;;;;;;4.50;1.43;;;;;;;;;;5053327;28;20419;-76
2023/04/04 03:16:38;;;;;;;5.10;0.70;;;;;;;;;;5052791;28;20478;-76
2023/04/04 03:19:04;;;;;;;3.20;1.10;;;;;;;;;;5053118;28;20890;-77
2023/04/04 03:21:30;;;;;;;2.53;1.10;;;;;;;;;;5053208;28;20413;-76
2023/04/04 03:23:56;;;;;;;3.23;0.90;;;;;;;;;;5053064;28;20400;-76
2023/04/04 03:26:22;;;;;;;4.67;1.67;;;;;;;;;;5053188;28;20420;-77
2023/04/04 03:28:48;;;;;;;1.87;0.87;;;;;;;;;;5052994;28;20415;-76
2023/04/04 03:31:14;;;;;;;2.93;0.80;;;;;;;;;;5052755;28;20761;-76
2023/04/04 03:33:41;;;;;;;3.10;0.77;;;;;;;;;;5052982;28;20417;-76
2023/04/04 03:36:13;;;;;;;1.27;1.07;;;;;;;;;;5052740;28;20501;-76
2023/04/04 03:38:40;;;;;;;2.80;1.47;;;;;;;;;;5053015;28;20408;-77
2023/04/04 03:41:06;;;;;;;4.40;1.60;;;;;;;;;;5052906;28;20446;-77
2023/04/04 03:43:32;;;;;;;2.70;1.60;;;;;;;;;;5052882;28;20412;-77
2023/04/04 03:46:03;;;;;;;3.20;1.43;;;;;;;;;;5034593;28;20424;-77
2023/04/04 03:48:29;;;;;;;1.30;0.83;;;;;;;;;;5052877;28;20412;-77
2023/04/04 03:50:56;;;;;;;1.87;1.00;;;;;;;;;;5034955;28;20432;-76
2023/04/04 03:53:22;;;;;;;3.17;1.17;;;;;;;;;;5034897;28;20417;-76
2023/04/04 03:55:48;;;;;;;1.70;0.83;;;;;;;;;;5034803;28;20820;-75
2023/04/04 03:58:14;;;;;;;1.60;0.80;;;;;;;;;;5052537;28;20458;-76
2023/04/04 04:00:40;;;;;;;4.13;1.03;;;;;;;;;;5052695;28;20480;-77
2023/04/04 04:03:06;;;;;;;1.50;1.03;;;;;;;;;;5052263;28;20410;-77
2023/04/04 04:05:32;;;;;;;2.50;1.43;;;;;;;;;;5052630;28;20553;-76
2023/04/04 04:07:58;;;;;;;3.50;1.30;;;;;;;;;;5036956;28;20478;-75
2023/04/04 04:10:24;;;;;;;2.40;0.80;;;;;;;;;;5056725;28;20460;-76
2023/04/04 04:12:50;;;;;;;3.10;1.70;;;;;;;;;;5056678;28;20408;-76
2023/04/04 04:15:16;;;;;;;1.83;0.87;;;;;;;;;;5056453;28;20413;-76
2023/04/04 04:17:41;;;;;;;3.50;1.27;;;;;;;;;;5056145;28;20827;-76
2023/04/04 04:20:08;;;;;;;1.70;1.20;;;;;;;;;;5056494;28;20469;-76
2023/04/04 04:22:35;;;;;;;1.30;1.00;;;;;;;;;;5056603;28;20473;-75
2023/04/04 04:25:00;;;;;;;2.43;1.57;;;;;;;;;;5056496;28;20461;-75
2023/04/04 04:27:26;;;;;;;2.80;1.10;;;;;;;;;;5056419;28;20420;-77
2023/04/04 04:29:52;;;;;;;1.27;0.87;;;;;;;;;;5056277;28;20478;-76
2023/04/04 04:32:19;;;;;;;2.90;1.80;;;;;;;;;;5055979;28;20507;-76
2023/04/04 04:34:44;;;;;;;1.10;1.00;;;;;;;;;;5051352;28;20421;-77
2023/04/04 04:37:11;;;;;;;2.90;1.13;;;;;;;;;;5036232;28;20518;-76
2023/04/04 04:39:37;;;;;;;2.57;2.17;;;;;;;;;;5036325;28;20404;-76
2023/04/04 04:42:03;;;;;;;3.13;2.03;;;;;;;;;;5036219;28;20471;-77
2023/04/04 04:44:29;;;;;;;3.10;1.67;;;;;;;;;;5036177;28;20768;-75
2023/04/04 04:46:58;;;;;;;3.37;1.70;;;;;;;;;;5035587;28;20421;-77
2023/04/04 04:49:23;;;;;;;7.80;1.90;;;;;;;;;;5035957;28;20405;-76
2023/04/04 04:51:49;;;;;;;2.80;1.33;;;;;;;;;;5035998;28;20421;-76
2023/04/04 04:54:15;;;;;;;3.30;1.20;;;;;;;;;;5018180;28;20416;-76
2023/04/04 04:56:41;;;;;;;1.43;0.90;;;;;;;;;;5035777;28;20472;-76
2023/04/04 04:59:07;;;;;;;5.10;1.67;;;;;;;;;;5035686;28;20983;-76
2023/04/04 05:01:33;;;;;;;3.70;2.00;;;;;;;;;;5035502;28;20952;-76
2023/04/04 05:04:00;;;;;;;5.60;2.80;;;;;;;;;;5035901;28;20413;-76
2023/04/04 05:06:26;;;;;;;2.80;1.87;;;;;;;;;;5035583;28;20800;-76
2023/04/04 05:08:51;;;;;;;4.97;2.20;;;;;;;;;;5035524;28;20474;-75
2023/04/04 05:11:17;;;;;;;4.03;2.20;;;;;;;;;;5035396;28;20422;-75
2023/04/04 05:13:43;;;;;;;4.47;2.35;;;;;;;;;;5049701;28;20424;-76
2023/04/04 05:16:10;;;;;;;4.83;2.13;;;;;;;;;;5055075;28;20240;-76
2023/04/04 05:18:36;;;;;;;5.13;2.10;;;;;;;;;;5054865;28;20419;-75
2023/04/04 05:21:02;;;;;;;4.27;1.77;;;;;;;;;;5055237;28;20404;-76
2023/04/04 05:23:28;;;;;;;3.97;1.60;;;;;;;;;;5037381;28;20801;-75
2023/04/04 05:25:54;;;;;;;2.60;1.20;;;;;;;;;;5054719;28;20422;-76
2023/04/04 05:28:20;;;;;;;4.03;1.50;;;;;;;;;;5053847;28;20485;-76
2023/04/04 05:30:46;;;;;;;3.20;1.30;;;;;;;;;;5036151;28;20808;-76
2023/04/04 05:33:12;;;;;;;2.50;1.30;;;;;;;;;;5055199;28;20421;-76
2023/04/04 05:35:40;;;;;;;2.43;1.40;;;;;;;;;;5055077;28;20978;-76
2023/04/04 05:38:05;;;;;;;3.80;1.63;;;;;;;;;;5055111;28;20430;-76
2023/04/04 05:40:31;;;;;;;3.17;2.20;;;;;;;;;;5054998;28;20408;-75
2023/04/04 05:42:58;;;;;;;8.70;2.60;;;;;;;;;;5054823;28;20420;-76
2023/04/04 05:45:24;;;;;;;1.83;1.57;;;;;;;;;;5054904;28;20408;-75
2023/04/04 05:47:50;;;;;;;2.87;1.43;;;;;;;;;;5054536;28;20796;-75
2023/04/04 05:50:16;;;;;;;4.43;1.20;;;;;;;;;;5054775;28;20409;-75
2023/04/04 05:52:44;;;;;;;2.80;1.87;;;;;;;;;;5054696;28;20408;-75
2023/04/04 05:55:10;;;;;;;2.23;1.73;;;;;;;;;;5054584;28;20411;-75
2023/04/04 05:57:36;;;;;;;3.17;1.67;;;;;;;;;;5036533;28;20928;-75
2023/04/04 06:00:05;;;;;;;2.43;1.13;;;;;;;;;;5054627;28;20410;-76
2023/04/04 06:02:31;;;;;;;3.43;1.80;;;;;;;;;;5036417;28;20406;-77
2023/04/04 06:04:57;;;;;;;4.57;2.00;;;;;;;;;;5036626;28;20422;-75
2023/04/04 06:07:23;;;;;;;4.00;1.70;;;;;;;;;;5036511;28;20499;-75
2023/04/04 06:09:48;;;;;;;4.77;2.13;;;;;;;;;;5054525;28;20409;-75
2023/04/04 06:12:14;;;;;;;2.30;1.37;;;;;;;;;;5054366;28;20411;-76
2023/04/04 06:14:40;;;;;;;3.17;1.17;;;;;;;;;;5054385;28;20914;-75
2023/04/04 06:17:06;;;;;;;5.23;1.80;;;;;;;;;;5036054;28;20965;-75
2023/04/04 06:19:32;;;;;;;3.60;1.37;;;;;;;;;;5054285;28;20447;-76
2023/04/04 06:22:01;;;;;;;3.00;1.37;;;;;;;;;;5054192;28;20481;-76
2023/04/04 06:24:27;;;;;;;3.57;1.37;;;;;;;;;;5036351;28;20804;-76
2023/04/04 06:26:53;;;;;;;4.37;1.50;;;;;;;;;;5036187;28;20420;-76
2023/04/04 06:29:18;;;;;;;5.20;1.23;;;;;;;;;;5054060;28;20411;-77
2023/04/04 06:31:45;;;;;;;5.83;1.30;;;;;;;;;;5053715;28;20527;-76
2023/04/04 06:34:11;;;;;;;4.20;1.20;;;;;;;;;;5036171;28;20174;-77
2023/04/04 06:36:36;;;;;;;4.53;1.00;;;;;;;;;;5053902;28;20471;-77
2023/04/04 06:39:02;;;;;;;3.07;0.60;;;;;;;;;;5053998;28;20418;-77
2023/04/04 06:41:28;;;;;;;6.70;0.77;;;;;;;;;;5053801;28;20701;-77
2023/04/04 06:43:54;;;;;;;3.30;0.90;;;;;;;;;;5053898;28;20487;-77
2023/04/04 06:46:24;;;;;;;5.17;0.60;;;;;;;;;;5053620;28;20181;-77
2023/04/04 06:48:49;;;;;;;2.73;0.33;;;;;;;;;;5053799;28;20415;-77
2023/04/04 06:51:16;;;;;;;6.63;0.90;;;;;;;;;;4996043;28;20436;-77
2023/04/04 06:53:42;;;;;;;1.50;0.70;;;;;;;;;;5033825;28;20266;-77
2023/04/04 06:56:09;;;;;;;5.83;1.60;;;;;;;;;;5032870;28;20516;-78
2023/04/04 06:58:35;;;;;;;3.90;1.30;;;;;;;;;;5032977;28;20813;-77
2023/04/04 07:01:01;;;;;;;2.13;0.40;;;;;;;;;;5032608;28;20478;-78
2023/04/04 07:03:27;;;;;;;3.67;0.60;;;;;;;;;;5032968;28;20414;-78
2023/04/04 07:05:53;;;;;;;2.30;0.60;;;;;;;;;;5032921;28;20406;-78
2023/04/04 07:08:19;;;;;;;1.17;0.47;;;;;;;;;;5032778;28;20177;-77
2023/04/04 07:10:45;;;;;;;2.10;0.60;;;;;;;;;;5033247;28;20179;-78
2023/04/04 07:13:11;;;;;;;1.00;0.30;;;;;;;;;;5015580;28;20520;-78
2023/04/04 07:15:37;;;;;;;1.93;0.77;;;;;;;;;;5015272;28;20227;-78
2023/04/04 07:18:02;;;;;;;2.40;0.53;;;;;;;;;;5033290;28;20428;-78
2023/04/04 07:20:28;;;;;;;1.33;0.63;;;;;;;;;;5015575;28;20190;-78
2023/04/04 07:22:54;;;;;;;2.60;0.47;;;;;;;;;;5015592;28;20490;-77
2023/04/04 07:25:20;;;;;;;1.87;0.30;;;;;;;;;;5033274;28;20420;-78
2023/04/04 07:27:46;;;;;;;2.27;0.60;;;;;;;;;;5033223;28;20405;-78
2023/04/04 07:30:12;;;;;;;1.70;0.70;;;;;;;;;;5032795;28;20174;-79
2023/04/04 07:32:39;;;;;;;2.50;0.40;;;;;;;;;;5015343;28;20421;-77
2023/04/04 07:35:05;;;;;;;2.00;0.40;;;;;;;;;;5015377;28;20428;-77
2023/04/04 07:37:32;;;;;;;2.10;0.60;;;;;;;;;;5032644;28;20472;-77
2023/04/04 07:39:58;;;;;;;1.90;0.30;;;;;;;;;;5033076;28;20817;-77
2023/04/04 07:42:24;;;;;;;1.97;0.40;;;;;;;;;;5014892;28;20910;-77
2023/04/04 07:44:50;;;;;;;1.37;0.40;;;;;;;;;;5032980;28;20413;-78
2023/04/04 07:47:16;;;;;;;1.10;0.27;;;;;;;;;;5032260;28;20422;-78
2023/04/04 07:49:42;;;;;;;3.30;0.50;;;;;;;;;;5000474;28;20963;-77
2023/04/04 07:52:11;;;;;;;4.20;1.27;;;;;;;;;;5023905;28;20423;-77
2023/04/04 07:54:39;;;;;;;1.77;0.73;;;;;;;;;;5032857;28;20416;-78
2023/04/04 07:57:05;;;;;;;2.50;1.13;;;;;;;;;;5015089;28;20565;-78
2023/04/04 07:59:31;;;;;;;1.90;0.53;;;;;;;;;;5032593;28;21070;-77
2023/04/04 08:01:57;;;;;;;2.73;0.60;;;;;;;;;;5032360;28;20921;-81
2023/04/04 08:04:23;;;;;;;3.50;0.40;;;;;;;;;;5032743;28;20413;-78
2023/04/04 08:06:49;;;;;;;1.23;0.33;;;18.20;1.00;;;;;;5032777;28;20510;-78
2023/04/04 08:09:15;;;;;;;1.73;0.53;;;18.40;1.00;;;;;;5032771;28;20177;-78
2023/04/04 08:11:41;;;;;;;3.83;0.43;;;18.40;1.00;;;;;;5032672;28;20169;-78
2023/04/04 08:14:10;;;;;;;1.60;0.40;;;18.40;1.00;;;;;;5032713;28;20524;-77
2023/04/04 08:16:36;;;;;;;1.43;0.40;;;18.40;1.00;;;;;;5032308;28;20483;-78
2023/04/04 08:19:02;;;;;;;2.10;0.40;;;18.40;1.00;;;;;;5032677;28;20908;-78
2023/04/04 08:21:28;;;;;;;3.30;0.40;;;18.40;1.00;;;;;;5032545;28;20424;-78
2023/04/04 08:23:54;;;;;;;3.23;0.20;;;18.60;1.00;;;;;;5032538;28;20771;-77
2023/04/04 08:26:20;;;;;;;3.60;0.63;;;18.70;1.00;;;;;;5032564;28;20648;-78
2023/04/04 08:28:46;;;;;;;1.33;0.20;;;18.50;1.00;;;;;;5032481;28;20823;-78
2023/04/04 08:31:12;;;;;;;2.13;0.30;;;18.30;1.00;;;;;;5032172;28;20459;-78
2023/04/04 08:33:37;;;;;;;1.73;0.20;;;18.00;1.00;;;;;;5032511;28;20695;-77
2023/04/04 08:36:03;;;;;;;1.93;0.30;;;17.70;1.00;;;;;;5032338;28;20200;-78
2023/04/04 08:38:38;;;;;;;1.33;0.40;;;17.40;1.00;;;;;;5032458;28;20194;-77
2023/04/04 08:41:03;;;;;;;1.40;0.47;;;16.80;1.00;;;;;;5032570;28;20466;-78
2023/04/04 08:43:33;;;;;;;2.60;0.50;;;16.40;1.00;;;;;;5032361;28;20832;-78
2023/04/04 08:46:00;;;;;;;2.83;0.77;;;16.20;1.00;;;;;;5014425;28;20268;-78
2023/04/04 08:48:28;;;;;;;2.67;0.20;;;15.70;1.00;;;;;;5032414;28;20412;-78
2023/04/04 08:50:58;;;;;;;0.90;0.30;;;15.60;1.00;;;;;;5032268;28;20422;-77
2023/04/04 08:53:24;;;;;;;1.53;0.30;;;15.30;99.90;;;;;;5032323;28;20509;-77
2023/04/04 08:55:50;;;;;;;3.20;0.30;;;15.10;99.90;;;;;;5017532;28;20460;-77
2023/04/04 08:58:16;;;;;;;1.43;0.43;;;15.20;99.90;;;;;;5018020;28;20882;-78
2023/04/04 09:00:41;;;;;;;3.23;0.60;;;15.90;99.90;;;;;;5035557;28;20164;-77
2023/04/04 09:03:23;;;;;;;2.20;0.40;;;16.60;99.90;;;;;;5035934;28;21123;-78
2023/04/04 09:05:50;;;;;;;2.07;0.40;;;17.30;1.00;;;;;;5018044;28;20182;-78
2023/04/04 09:08:17;;;;;;;1.33;0.40;;;17.70;1.00;;;;;;5035753;28;20762;-78
2023/04/04 09:10:44;;;;;;;2.37;0.30;;;18.00;1.00;;;;;;5035716;28;20507;-78
2023/04/04 09:13:10;;;;;;;1.90;0.53;;;18.10;1.00;;;;;;5017946;28;20913;-78
2023/04/04 09:15:42;;;;;;;6.90;0.60;;;18.50;1.00;;;;;;5035256;28;20609;-77
2023/04/04 09:18:07;;;;;;;2.67;0.50;;;19.00;1.00;;;;;;5018003;28;20706;-78
2023/04/04 09:20:41;;;;;;;3.40;0.57;;;19.60;1.00;;;;;;5017854;28;20500;-78
2023/04/04 09:23:10;;;;;;;5.50;0.73;;;20.00;1.00;;;;;;5017692;28;20182;-78
2023/04/04 09:25:36;;;;;;;1.60;0.30;;;20.20;1.00;;;;;;5035510;28;20500;-78
2023/04/04 09:28:04;;;;;;;3.03;0.50;;;20.50;1.00;;;;;;5017656;28;20429;-78
2023/04/04 09:30:31;;;;;;;1.23;0.40;;;21.00;1.00;;;;;;5035102;28;20808;-78
2023/04/04 09:33:10;;;;;;;5.47;0.60;;;21.50;1.00;;;;;;5017579;28;20420;-78
2023/04/04 09:35:43;;;;;;;1.37;0.30;;;21.80;1.00;;;;;;5017448;28;20472;-78
2023/04/04 09:38:08;;;;;;;2.00;0.40;;;22.00;1.00;;;;;;5035316;28;20437;-78
2023/04/04 09:40:35;;;;;;;2.83;0.30;;;21.80;1.00;;;;;;5017329;28;20442;-78
2023/04/04 09:43:03;;;;;;;1.53;0.47;;;21.90;1.00;;;;;;5017323;28;20265;-78
2023/04/04 09:45:34;;;;;;;1.83;0.53;;;22.00;1.00;;;;;;5034688;28;20409;-78
2023/04/04 09:48:02;;;;;;;2.63;0.67;;;21.80;1.00;;;;;;5035016;28;20429;-78
2023/04/04 09:50:32;;;;;;;1.00;0.40;;;21.20;99.90;;;;;;5033688;28;20778;-78
2023/04/04 09:52:59;;;;;;;3.00;0.40;;;21.10;99.90;;;;;;5034892;28;20843;-78
2023/04/04 09:55:37;;;;;;;2.50;0.50;;;21.00;1.00;;;;;;5034822;28;20763;-78
2023/04/04 09:58:12;;;;;;;1.27;0.30;;;21.00;1.00;;;;;;5034519;28;20483;-77
2023/04/04 10:00:46;;;;;;;1.63;0.57;;;20.70;99.90;;;;;;5034387;28;20824;-78
2023/04/04 10:03:16;;;;;;;4.40;0.50;;;20.50;99.90;;;;;;5017041;28;20746;-78
2023/04/04 10:05:44;;;;;;;1.47;0.30;;;20.30;99.90;;;;;;5034306;28;20421;-77
2023/04/04 10:08:19;;;;;;;2.27;1.00;;;20.30;1.00;;;;;;5034699;28;20423;-77
2023/04/04 10:10:50;;;;;;;1.33;0.43;;;20.60;1.00;;;;;;5034479;28;20401;-78
2023/04/04 10:13:45;;;;;;;2.83;0.53;;;20.70;1.00;;;;;;5016677;28;20459;-78
2023/04/04 10:16:11;;;;;;;2.00;0.70;;;20.80;1.00;;;;;;5031355;28;20905;-78
2023/04/04 10:18:37;;;;;;;2.13;0.40;;;20.30;99.90;;;;;;5034406;28;20417;-78
2023/04/04 10:21:05;;;;;;;1.50;0.83;;;20.30;99.90;;;;;;5034451;28;20424;-78
2023/04/04 10:23:33;;;;;;;1.73;0.70;;;19.90;99.90;;;;;;5016559;28;20428;-77
2023/04/04 10:25:59;;;;;;;1.00;0.47;;;19.00;99.90;;;;;;5034193;28;20427;-78
2023/04/04 10:28:26;;;;;;;3.50;0.20;;;18.40;99.90;;;;;;5016314;28;20432;-77
2023/04/04 10:31:10;;;;;;;0.97;0.30;;;18.20;99.90;;;;;;5033781;28;20417;-77
2023/04/04 10:34:00;;;;;;;1.73;0.70;;;18.90;99.90;;;;;;5034041;28;20417;-77
2023/04/04 10:36:33;;;;;;;1.47;0.57;;;19.70;1.00;;;;;;4993376;28;20468;-78
2023/04/04 10:39:07;;;;;;;1.43;0.30;;;20.00;1.00;;;;;;5033989;28;20413;-78
2023/04/04 10:41:36;;;;;;;2.37;0.47;;;;;;;;;;5016064;28;20433;-78
2023/04/04 10:44:10;;;;;;;1.00;0.50;;;20.80;1.00;;;;;;5033839;28;20959;-77
2023/04/04 10:46:41;;;;;;;2.57;0.57;;;21.50;99.90;;;;;;5015783;28;20416;-78
2023/04/04 10:49:07;;;;;;;0.90;0.30;;;22.00;99.90;;;;;;5033923;28;20412;-78
2023/04/04 10:51:33;;;;;;;2.13;0.30;;;22.30;99.90;;;;;;5033863;28;20398;-77
2023/04/04 10:53:59;;;;;;;3.60;0.67;;;22.20;99.90;;;;;;5016025;28;20170;-78
2023/04/04 10:56:25;;;;;;;1.20;0.40;;;22.60;99.90;;;;;;5015963;28;20277;-78
2023/04/04 10:59:09;;;;;;;2.30;0.60;;;23.00;99.90;;;;;;5033503;28;20222;-78
2023/04/04 11:01:48;;;;;;;3.13;0.63;;;23.90;99.90;;;;;;5033295;28;20417;-78
2023/04/04 11:04:18;;;;;;;2.00;0.50;;;24.30;99.90;;;;;;5033639;28;20405;-78
2023/04/04 11:07:04;;;;;;;2.10;0.90;;;24.20;1.00;;;;;;5033483;28;20432;-77
2023/04/04 11:09:48;;;;;;;1.80;0.20;;;23.50;1.00;;;;;;5033462;28;20463;-78
2023/04/04 11:12:19;;;;;;;2.57;0.40;;;23.10;1.00;;;;;;5033434;28;20413;-78
2023/04/04 11:15:01;;;;;;;1.70;0.53;;;22.60;1.00;;;;;;5033162;28;20457;-78
2023/04/04 11:17:42;;;;;;;3.03;0.73;;;22.20;1.00;;;;;;5032706;28;20550;-78
2023/04/04 11:20:09;;;;;;;1.23;0.50;;;21.90;1.00;;;;;;5033345;28;20488;-78
2023/04/04 11:22:35;;;;;;;1.33;0.57;;;22.00;1.00;;;;;;5033342;28;20504;-78
2023/04/04 11:25:27;;;;;;;1.83;0.40;;;22.20;1.00;;;;;;5033311;28;20894;-78
2023/04/04 11:27:55;;;;;;;2.30;0.77;;;22.40;1.00;;;;;;5033240;28;20234;-78
2023/04/04 11:30:20;;;;;;;2.87;0.93;;;22.50;1.00;;;;;;5032860;28;20412;-78
2023/04/04 11:32:49;;;;;;;1.97;0.70;;;22.20;1.00;;;;;;5015381;28;21072;-78
2023/04/04 11:35:16;;;;;;;2.50;0.80;;;21.60;1.00;;;;;;4996806;28;20192;-77
2023/04/04 11:37:54;;;;;;;1.50;0.30;;;21.50;1.00;;;;;;5049717;28;20490;-77
2023/04/04 11:40:36;;;;;;;1.17;0.40;;;21.10;1.00;;;;;;5033180;28;20412;-77
2023/04/04 11:43:09;;;;;;;0.67;0.23;;;20.70;1.00;;;;;;5033071;28;20413;-77
2023/04/04 11:45:36;;;;;;;1.30;0.70;;;20.20;1.00;;;;;;5032700;28;20416;-78
2023/04/04 11:48:04;;;;;;;1.77;0.30;;;19.80;1.00;;;;;;5015311;28;20425;-77
2023/04/04 11:50:40;;;;;;;1.67;0.30;;;18.90;1.00;;;;;;5032975;28;20449;-77
2023/04/04 11:53:10;;;;;;;1.27;0.50;;;18.60;1.00;;;;;;5032928;28;20427;-78
2023/04/04 11:55:41;;;;;;;1.80;0.63;;;18.10;1.00;;;;;;5032851;28;20412;-78
2023/04/04 11:58:09;;;;;;;1.87;0.37;;;17.70;1.00;;;;;;5032719;28;20461;-78
2023/04/04 12:00:36;;;;;;;1.00;0.57;;;17.60;1.00;;;;;;5014723;28;21002;-78
2023/04/04 12:03:11;;;;;;;1.10;0.50;;;17.50;1.00;;;;;;5032852;28;20409;-78
2023/04/04 12:05:41;;;;;;;1.57;0.30;;;17.40;1.00;;;;;;5032825;28;20470;-77
2023/04/04 12:08:09;;;;;;;1.37;0.60;;;17.60;1.00;;;;;;5031564;28;20412;-78
2023/04/04 12:10:36;;;;;;;1.93;0.60;;;17.60;99.90;;;;;;5028824;28;20419;-78
2023/04/04 12:13:08;;;;;;;1.33;0.33;;;17.90;99.90;;;;;;5031254;28;20462;-78
2023/04/04 12:15:35;;;;;;;3.43;0.50;;;18.40;99.90;;;;;;5030861;28;20737;-78
2023/04/04 12:18:01;;;;;;;2.07;0.70;;;18.60;99.90;;;;;;5031404;28;20481;-78
2023/04/04 12:20:27;;;;;;;0.60;0.20;;;19.00;99.90;;;;;;5013542;28;20495;-77
2023/04/04 12:22:53;;;;;;;4.00;0.67;;;;;;;;;;5031255;28;20871;-78
2023/04/04 12:25:21;;;;;;;1.40;0.40;;;19.50;1.00;;;;;;5031309;28;20182;-78
2023/04/04 12:27:48;;;;;;;1.23;0.40;;;19.80;99.90;;;;;;5014277;28;20504;-77
2023/04/04 12:30:15;;;;;;;1.20;0.30;;;20.40;99.90;;;;;;5036196;28;20413;-78
2023/04/04 12:32:48;;;;;;;1.80;0.50;;;21.20;99.90;;;;;;5036245;28;20810;-77
2023/04/04 12:35:14;;;;;;;1.43;0.77;;;21.70;99.90;;;;;;5018743;28;20495;-78
2023/04/04 12:37:57;;;;;;;3.00;0.37;;;22.20;99.90;;;;;;4977526;28;20472;-79
2023/04/04 12:40:24;;;;;;;1.47;0.40;;;;;;;;;;5036347;28;20404;-88
2023/04/04 12:42:50;;;;;;;0.60;0.40;;;22.40;1.00;;;;;;5032250;28;20429;-91
2023/04/04 12:45:21;;;;;;;2.47;0.57;;;21.50;99.90;;;;;;5035056;28;20909;-87
2023/04/04 12:47:57;;;;;;;0.83;0.20;;;21.60;99.90;;;;;;5017151;28;20182;-87
2023/04/04 12:50:28;;;;;;;1.60;0.47;;;21.60;99.90;;;;;;4990934;28;20432;-81
2023/04/04 12:52:59;;;;;;;2.80;0.50;;;20.90;99.90;;;;;;5034959;28;20420;-82
2023/04/04 12:55:30;;;;;;;2.50;0.60;;;20.90;99.90;;;;;;5025320;28;20437;-80
2023/04/04 12:57:59;;;;;;;1.47;0.90;;;20.80;99.90;;;;;;5015049;28;20469;-77
2023/04/04 13:00:27;;;;;;;4.20;0.53;;;;;;;;;;5015571;28;20942;-78
2023/04/04 13:02:54;;;;;;;2.10;0.70;;;20.50;1.00;;;;;;5016117;28;20413;-78
2023/04/04 13:05:21;;;;;;;2.10;0.50;;;20.20;99.90;;;;;;5026789;28;20525;-78
2023/04/04 13:07:47;;;;;;;1.53;0.57;;;19.80;99.90;;;;;;5035711;28;20941;-78
2023/04/04 13:10:15;;;;;;;1.90;0.30;;;19.80;99.90;;;;;;5035721;28;20453;-78
2023/04/04 13:13:01;;;;;;;2.33;0.40;;;19.90;99.90;;;;;;5023343;28;20236;-78
2023/04/04 13:15:49;;;;;;;0.97;0.30;;;19.50;99.90;;;;;;5033307;28;20489;-78
2023/04/04 13:18:23;;;;;;;1.47;0.30;;;19.50;99.90;;;;;;5015861;28;20497;-78
2023/04/04 13:20:50;;;;;;;2.00;0.50;;;19.50;99.90;;;;;;5032769;28;20419;-78
2023/04/04 13:23:15;;;;;;;1.27;0.30;;;19.30;99.90;;;;;;5034368;28;20428;-78
2023/04/04 13:25:41;;;;;;;1.40;0.20;;;18.90;1.00;;;;;;5034279;28;20420;-78
2023/04/04 13:28:07;;;;;;;2.43;0.40;;;18.00;1.00;;;;;;5016448;28;20688;-78
2023/04/04 13:30:36;;;;;;;2.33;0.80;;;17.80;1.00;;;;;;5015856;28;20668;-78
2023/04/04 13:33:01;;;;;;;1.53;0.37;;;17.60;1.00;;;;;;5034127;28;20166;-78
2023/04/04 13:35:27;;;;;;;1.20;0.33;;;;;;;;;;5034074;28;20428;-78
2023/04/04 13:37:53;;;;;;;2.20;0.40;;;;;;;;;;4993030;28;20246;-78
2023/04/04 13:40:19;;;;;;;1.67;0.43;;;;;;;;;;5015455;28;20410;-77
2023/04/04 13:42:46;;;;;;;1.40;0.50;;;;;;;;;;5033927;28;20181;-78
2023/04/04 13:45:13;;;;;;;4.10;0.70;;;;;;;;;;5033588;28;20456;-78
2023/04/04 13:47:38;;;;;;;1.67;0.60;;;15.90;1.00;;;;;;5015875;28;20506;-78
2023/04/04 13:50:06;;;;;;;2.37;0.40;;;;;;;;;;5033754;28;20518;-78
2023/04/04 13:52:32;;;;;;;2.00;0.57;;;;;;;;;;5016064;28;20271;-78
2023/04/04 13:54:58;;;;;;;1.23;0.43;;;;;;;;;;5015916;28;20826;-78
2023/04/04 13:57:26;;;;;;;0.80;0.30;;;;;;;;;;5033468;28;20519;-77
2023/04/04 13:59:51;;;;;;;2.20;0.60;;;15.90;1.00;;;;;;5015643;28;20838;-77
2023/04/04 14:02:18;;;;;;;1.50;0.30;;;;;;;;;;5033477;28;20466;-77